sensor_id;sensor_type;location;lat;lon;timestamp;P1;durP1;ratioP1;P2;durP2;ratioP2
76417;SDS011;65250;47.602;19.002;2023-04-03T00:00:31;6.38;;;3.20;;
76417;SDS011;65250;47.602;19.002;2023-04-03T00:02:58;4.65;;;2.90;;
76417;SDS011;65250;47.602;19.002;2023-04-03T00:05:25;5.97;;;3.67;;
76417;SDS011;65250;47.602;19.002;2023-04-03T00:07:52;6.13;;;3.47;;
76417;SDS011;65250;47.602;19.002;2023-04-03T00:10:19;5.40;;;3.70;;
76417;SDS011;65250;47.602;19.002;2023-04-03T00:12:46;5.25;;;3.28;;
76417;SDS011;65250;47.602;19.002;2023-04-03T00:15:13;6.38;;;3.83;;
76417;SDS011;65250;47.602;19.002;2023-04-03T00:17:40;6.03;;;3.40;;
76417;SDS011;65250;47.602;19.002;2023-04-03T00:20:07;6.93;;;3.80;;
76417;SDS011;65250;47.602;19.002;2023-04-03T00:22:34;7.47;;;3.65;;
76417;SDS011;65250;47.602;19.002;2023-04-03T00:25:01;6.88;;;3.80;;
76417;SDS011;65250;47.602;19.002;2023-04-03T00:27:27;6.05;;;3.35;;
76417;SDS011;65250;47.602;19.002;2023-04-03T00:29:54;6.97;;;3.60;;
76417;SDS011;65250;47.602;19.002;2023-04-03T00:32:21;5.53;;;3.30;;
76417;SDS011;65250;47.602;19.002;2023-04-03T00:34:48;5.25;;;3.13;;
76417;SDS011;65250;47.602;19.002;2023-04-03T00:37:15;5.13;;;3.00;;
76417;SDS011;65250;47.602;19.002;2023-04-03T00:39:41;4.43;;;2.88;;
76417;SDS011;65250;47.602;19.002;2023-04-03T00:42:08;5.68;;;3.05;;
76417;SDS011;65250;47.602;19.002;2023-04-03T00:47:02;6.50;;;3.25;;
76417;SDS011;65250;47.602;19.002;2023-04-03T00:49:30;6.68;;;3.40;;
76417;SDS011;65250;47.602;19.002;2023-04-03T00:51:57;6.28;;;3.33;;
76417;SDS011;65250;47.602;19.002;2023-04-03T00:54:25;7.18;;;3.50;;
76417;SDS011;65250;47.602;19.002;2023-04-03T00:56:52;5.00;;;3.07;;
76417;SDS011;65250;47.602;19.002;2023-04-03T00:59:22;5.05;;;2.95;;
76417;SDS011;65250;47.602;19.002;2023-04-03T01:01:53;5.15;;;2.90;;
76417;SDS011;65250;47.602;19.002;2023-04-03T01:04:31;4.88;;;2.80;;
76417;SDS011;65250;47.602;19.002;2023-04-03T01:07:12;4.68;;;2.28;;
76417;SDS011;65250;47.602;19.002;2023-04-03T01:09:41;5.20;;;2.70;;
76417;SDS011;65250;47.602;19.002;2023-04-03T01:14:48;4.40;;;2.60;;
76417;SDS011;65250;47.602;19.002;2023-04-03T01:23:37;3.80;;;2.33;;
76417;SDS011;65250;47.602;19.002;2023-04-03T01:25:50;4.95;;;2.80;;
76417;SDS011;65250;47.602;19.002;2023-04-03T01:28:20;4.22;;;2.55;;
76417;SDS011;65250;47.602;19.002;2023-04-03T01:33:42;5.03;;;2.60;;
76417;SDS011;65250;47.602;19.002;2023-04-03T01:36:10;4.20;;;2.43;;
76417;SDS011;65250;47.602;19.002;2023-04-03T01:38:41;3.67;;;2.10;;
76417;SDS011;65250;47.602;19.002;2023-04-03T01:41:08;4.93;;;2.75;;
76417;SDS011;65250;47.602;19.002;2023-04-03T01:43:35;3.67;;;2.28;;
76417;SDS011;65250;47.602;19.002;2023-04-03T01:46:02;4.43;;;2.63;;
76417;SDS011;65250;47.602;19.002;2023-04-03T01:48:28;5.70;;;2.67;;
76417;SDS011;65250;47.602;19.002;2023-04-03T01:50:55;3.67;;;2.50;;
76417;SDS011;65250;47.602;19.002;2023-04-03T01:53:22;3.42;;;2.03;;
76417;SDS011;65250;47.602;19.002;2023-04-03T01:55:49;4.25;;;1.88;;
76417;SDS011;65250;47.602;19.002;2023-04-03T01:58:15;3.70;;;2.20;;
76417;SDS011;65250;47.602;19.002;2023-04-03T02:00:42;4.43;;;2.00;;
76417;SDS011;65250;47.602;19.002;2023-04-03T02:03:09;3.22;;;2.00;;
76417;SDS011;65250;47.602;19.002;2023-04-03T02:05:36;3.78;;;2.05;;
76417;SDS011;65250;47.602;19.002;2023-04-03T02:08:03;3.47;;;2.20;;
76417;SDS011;65250;47.602;19.002;2023-04-03T02:10:29;3.00;;;1.63;;
76417;SDS011;65250;47.602;19.002;2023-04-03T02:12:56;2.03;;;1.37;;
76417;SDS011;65250;47.602;19.002;2023-04-03T02:15:23;4.13;;;1.90;;
76417;SDS011;65250;47.602;19.002;2023-04-03T02:17:50;2.60;;;1.25;;
76417;SDS011;65250;47.602;19.002;2023-04-03T02:20:17;3.70;;;1.80;;
76417;SDS011;65250;47.602;19.002;2023-04-03T02:22:44;2.75;;;1.65;;
76417;SDS011;65250;47.602;19.002;2023-04-03T02:25:10;2.93;;;1.73;;
76417;SDS011;65250;47.602;19.002;2023-04-03T02:27:38;3.75;;;1.83;;
76417;SDS011;65250;47.602;19.002;2023-04-03T02:30:05;3.35;;;1.83;;
76417;SDS011;65250;47.602;19.002;2023-04-03T02:32:33;2.88;;;1.63;;
76417;SDS011;65250;47.602;19.002;2023-04-03T02:34:59;2.72;;;1.45;;
76417;SDS011;65250;47.602;19.002;2023-04-03T02:37:26;2.60;;;2.10;;
76417;SDS011;65250;47.602;19.002;2023-04-03T02:39:53;4.05;;;1.85;;
76417;SDS011;65250;47.602;19.002;2023-04-03T02:42:19;2.05;;;1.60;;
76417;SDS011;65250;47.602;19.002;2023-04-03T02:44:46;2.78;;;1.73;;
76417;SDS011;65250;47.602;19.002;2023-04-03T02:47:13;3.38;;;2.10;;
76417;SDS011;65250;47.602;19.002;2023-04-03T02:49:40;4.20;;;2.10;;
76417;SDS011;65250;47.602;19.002;2023-04-03T02:52:07;2.78;;;1.67;;
76417;SDS011;65250;47.602;19.002;2023-04-03T02:54:33;3.70;;;2.10;;
76417;SDS011;65250;47.602;19.002;2023-04-03T02:57:00;3.63;;;1.90;;
76417;SDS011;65250;47.602;19.002;2023-04-03T02:59:27;4.68;;;2.55;;
76417;SDS011;65250;47.602;19.002;2023-04-03T03:01:54;3.33;;;1.80;;
76417;SDS011;65250;47.602;19.002;2023-04-03T03:04:22;5.47;;;2.55;;
76417;SDS011;65250;47.602;19.002;2023-04-03T03:06:49;4.60;;;2.38;;
76417;SDS011;65250;47.602;19.002;2023-04-03T03:09:15;3.92;;;1.92;;
76417;SDS011;65250;47.602;19.002;2023-04-03T03:11:42;5.70;;;2.53;;
76417;SDS011;65250;47.602;19.002;2023-04-03T03:14:09;3.60;;;2.47;;
76417;SDS011;65250;47.602;19.002;2023-04-03T03:16:35;3.67;;;2.08;;
76417;SDS011;65250;47.602;19.002;2023-04-03T03:19:02;3.78;;;2.22;;
76417;SDS011;65250;47.602;19.002;2023-04-03T03:21:29;3.75;;;2.08;;
76417;SDS011;65250;47.602;19.002;2023-04-03T03:23:56;4.80;;;2.40;;
76417;SDS011;65250;47.602;19.002;2023-04-03T03:26:23;4.53;;;2.50;;
76417;SDS011;65250;47.602;19.002;2023-04-03T03:28:50;4.05;;;2.42;;
76417;SDS011;65250;47.602;19.002;2023-04-03T03:31:17;3.45;;;2.15;;
76417;SDS011;65250;47.602;19.002;2023-04-03T03:33:43;3.38;;;1.73;;
76417;SDS011;65250;47.602;19.002;2023-04-03T03:36:10;4.15;;;2.42;;
76417;SDS011;65250;47.602;19.002;2023-04-03T03:38:37;3.40;;;1.80;;
76417;SDS011;65250;47.602;19.002;2023-04-03T03:41:04;5.45;;;2.83;;
76417;SDS011;65250;47.602;19.002;2023-04-03T03:43:31;3.33;;;2.20;;
76417;SDS011;65250;47.602;19.002;2023-04-03T03:45:58;5.18;;;2.22;;
76417;SDS011;65250;47.602;19.002;2023-04-03T03:48:24;4.18;;;2.42;;
76417;SDS011;65250;47.602;19.002;2023-04-03T03:50:51;5.37;;;2.50;;
76417;SDS011;65250;47.602;19.002;2023-04-03T03:53:18;5.03;;;2.10;;
76417;SDS011;65250;47.602;19.002;2023-04-03T03:55:45;4.32;;;3.03;;
76417;SDS011;65250;47.602;19.002;2023-04-03T03:58:12;4.78;;;2.45;;
76417;SDS011;65250;47.602;19.002;2023-04-03T04:00:39;4.70;;;2.10;;
76417;SDS011;65250;47.602;19.002;2023-04-03T04:03:05;3.77;;;2.10;;
76417;SDS011;65250;47.602;19.002;2023-04-03T04:05:32;3.67;;;2.03;;
76417;SDS011;65250;47.602;19.002;2023-04-03T04:07:59;4.53;;;2.60;;
76417;SDS011;65250;47.602;19.002;2023-04-03T04:10:26;4.80;;;2.40;;
76417;SDS011;65250;47.602;19.002;2023-04-03T04:12:52;3.83;;;2.35;;
76417;SDS011;65250;47.602;19.002;2023-04-03T04:15:20;4.53;;;2.40;;
76417;SDS011;65250;47.602;19.002;2023-04-03T04:17:48;3.97;;;2.20;;
76417;SDS011;65250;47.602;19.002;2023-04-03T04:20:15;4.13;;;2.53;;
76417;SDS011;65250;47.602;19.002;2023-04-03T04:22:42;3.50;;;2.05;;
76417;SDS011;65250;47.602;19.002;2023-04-03T04:25:08;4.45;;;2.13;;
76417;SDS011;65250;47.602;19.002;2023-04-03T04:27:36;3.80;;;2.07;;
76417;SDS011;65250;47.602;19.002;2023-04-03T04:30:03;4.95;;;2.42;;
76417;SDS011;65250;47.602;19.002;2023-04-03T04:32:30;5.00;;;2.70;;
76417;SDS011;65250;47.602;19.002;2023-04-03T04:34:57;4.93;;;2.47;;
76417;SDS011;65250;47.602;19.002;2023-04-03T04:37:24;5.07;;;2.60;;
76417;SDS011;65250;47.602;19.002;2023-04-03T04:39:51;4.43;;;2.50;;
76417;SDS011;65250;47.602;19.002;2023-04-03T04:42:18;4.32;;;2.53;;
76417;SDS011;65250;47.602;19.002;2023-04-03T04:44:44;5.90;;;2.70;;
76417;SDS011;65250;47.602;19.002;2023-04-03T04:47:11;5.93;;;2.53;;
76417;SDS011;65250;47.602;19.002;2023-04-03T04:49:38;4.88;;;2.70;;
76417;SDS011;65250;47.602;19.002;2023-04-03T04:52:05;5.33;;;2.60;;
76417;SDS011;65250;47.602;19.002;2023-04-03T04:54:32;4.63;;;2.40;;
76417;SDS011;65250;47.602;19.002;2023-04-03T04:56:59;4.28;;;2.15;;
76417;SDS011;65250;47.602;19.002;2023-04-03T04:59:26;5.10;;;2.50;;
76417;SDS011;65250;47.602;19.002;2023-04-03T05:01:52;5.70;;;2.58;;
76417;SDS011;65250;47.602;19.002;2023-04-03T05:04:19;4.83;;;2.67;;
76417;SDS011;65250;47.602;19.002;2023-04-03T05:06:46;5.72;;;2.28;;
76417;SDS011;65250;47.602;19.002;2023-04-03T05:09:13;4.25;;;2.70;;
76417;SDS011;65250;47.602;19.002;2023-04-03T05:11:40;5.07;;;2.35;;
76417;SDS011;65250;47.602;19.002;2023-04-03T05:14:06;6.28;;;2.38;;
76417;SDS011;65250;47.602;19.002;2023-04-03T05:16:33;4.03;;;2.50;;
76417;SDS011;65250;47.602;19.002;2023-04-03T05:19:01;6.57;;;2.13;;
76417;SDS011;65250;47.602;19.002;2023-04-03T05:21:27;4.55;;;2.53;;
76417;SDS011;65250;47.602;19.002;2023-04-03T05:23:59;4.10;;;2.50;;
76417;SDS011;65250;47.602;19.002;2023-04-03T05:26:29;6.07;;;2.58;;
76417;SDS011;65250;47.602;19.002;2023-04-03T05:28:57;5.70;;;2.87;;
76417;SDS011;65250;47.602;19.002;2023-04-03T05:31:24;5.68;;;2.33;;
76417;SDS011;65250;47.602;19.002;2023-04-03T05:33:51;4.28;;;2.63;;
76417;SDS011;65250;47.602;19.002;2023-04-03T05:36:18;5.30;;;2.97;;
76417;SDS011;65250;47.602;19.002;2023-04-03T05:38:45;6.90;;;2.80;;
76417;SDS011;65250;47.602;19.002;2023-04-03T05:41:12;7.00;;;3.30;;
76417;SDS011;65250;47.602;19.002;2023-04-03T05:43:39;6.45;;;2.47;;
76417;SDS011;65250;47.602;19.002;2023-04-03T05:46:10;6.22;;;2.45;;
76417;SDS011;65250;47.602;19.002;2023-04-03T05:48:37;4.28;;;2.55;;
76417;SDS011;65250;47.602;19.002;2023-04-03T05:51:05;8.60;;;2.97;;
76417;SDS011;65250;47.602;19.002;2023-04-03T05:53:33;3.70;;;2.10;;
76417;SDS011;65250;47.602;19.002;2023-04-03T05:56:03;5.63;;;1.98;;
76417;SDS011;65250;47.602;19.002;2023-04-03T05:58:30;4.15;;;2.03;;
76417;SDS011;65250;47.602;19.002;2023-04-03T06:00:57;4.95;;;2.00;;
76417;SDS011;65250;47.602;19.002;2023-04-03T06:03:24;5.40;;;2.40;;
76417;SDS011;65250;47.602;19.002;2023-04-03T06:05:52;5.77;;;1.60;;
76417;SDS011;65250;47.602;19.002;2023-04-03T06:08:19;3.15;;;1.63;;
76417;SDS011;65250;47.602;19.002;2023-04-03T06:10:45;2.05;;;1.25;;
76417;SDS011;65250;47.602;19.002;2023-04-03T06:13:12;3.17;;;1.52;;
76417;SDS011;65250;47.602;19.002;2023-04-03T06:15:39;2.13;;;1.25;;
76417;SDS011;65250;47.602;19.002;2023-04-03T06:18:06;2.70;;;1.30;;
76417;SDS011;65250;47.602;19.002;2023-04-03T06:20:34;3.55;;;1.38;;
76417;SDS011;65250;47.602;19.002;2023-04-03T06:23:01;1.75;;;1.02;;
76417;SDS011;65250;47.602;19.002;2023-04-03T06:25:28;3.08;;;1.52;;
76417;SDS011;65250;47.602;19.002;2023-04-03T06:27:55;4.85;;;1.30;;
76417;SDS011;65250;47.602;19.002;2023-04-03T06:30:22;2.10;;;1.10;;
76417;SDS011;65250;47.602;19.002;2023-04-03T06:32:48;2.53;;;1.50;;
76417;SDS011;65250;47.602;19.002;2023-04-03T06:35:15;2.00;;;1.30;;
76417;SDS011;65250;47.602;19.002;2023-04-03T06:37:42;4.60;;;1.30;;
76417;SDS011;65250;47.602;19.002;2023-04-03T06:40:19;3.03;;;1.30;;
76417;SDS011;65250;47.602;19.002;2023-04-03T06:42:48;1.30;;;0.90;;
76417;SDS011;65250;47.602;19.002;2023-04-03T06:45:16;1.73;;;0.90;;
76417;SDS011;65250;47.602;19.002;2023-04-03T06:47:43;1.70;;;1.02;;
76417;SDS011;65250;47.602;19.002;2023-04-03T06:50:10;1.60;;;1.10;;
76417;SDS011;65250;47.602;19.002;2023-04-03T06:52:40;3.33;;;1.10;;
76417;SDS011;65250;47.602;19.002;2023-04-03T06:55:07;2.53;;;1.00;;
76417;SDS011;65250;47.602;19.002;2023-04-03T06:57:35;2.03;;;1.20;;
76417;SDS011;65250;47.602;19.002;2023-04-03T07:00:03;4.72;;;1.20;;
76417;SDS011;65250;47.602;19.002;2023-04-03T07:02:31;3.58;;;1.15;;
76417;SDS011;65250;47.602;19.002;2023-04-03T07:04:58;1.52;;;0.70;;
76417;SDS011;65250;47.602;19.002;2023-04-03T07:07:27;1.77;;;0.90;;
76417;SDS011;65250;47.602;19.002;2023-04-03T07:09:54;1.60;;;0.93;;
76417;SDS011;65250;47.602;19.002;2023-04-03T07:12:21;3.33;;;1.20;;
76417;SDS011;65250;47.602;19.002;2023-04-03T07:14:48;1.65;;;0.82;;
76417;SDS011;65250;47.602;19.002;2023-04-03T07:17:15;1.20;;;1.08;;
76417;SDS011;65250;47.602;19.002;2023-04-03T07:19:41;1.00;;;0.70;;
76417;SDS011;65250;47.602;19.002;2023-04-03T07:22:08;2.58;;;1.20;;
76417;SDS011;65250;47.602;19.002;2023-04-03T07:24:37;2.15;;;1.00;;
76417;SDS011;65250;47.602;19.002;2023-04-03T07:27:04;2.72;;;1.45;;
76417;SDS011;65250;47.602;19.002;2023-04-03T07:29:31;1.83;;;0.95;;
76417;SDS011;65250;47.602;19.002;2023-04-03T07:31:58;1.70;;;0.87;;
76417;SDS011;65250;47.602;19.002;2023-04-03T07:34:25;2.35;;;1.20;;
76417;SDS011;65250;47.602;19.002;2023-04-03T07:36:52;2.17;;;1.00;;
76417;SDS011;65250;47.602;19.002;2023-04-03T07:39:19;1.20;;;0.82;;
76417;SDS011;65250;47.602;19.002;2023-04-03T07:41:45;1.60;;;0.98;;
76417;SDS011;65250;47.602;19.002;2023-04-03T07:44:12;0.97;;;0.70;;
76417;SDS011;65250;47.602;19.002;2023-04-03T07:46:39;1.63;;;0.70;;
76417;SDS011;65250;47.602;19.002;2023-04-03T07:49:07;1.10;;;0.60;;
76417;SDS011;65250;47.602;19.002;2023-04-03T07:51:34;2.38;;;0.70;;
76417;SDS011;65250;47.602;19.002;2023-04-03T07:54:01;5.25;;;1.10;;
76417;SDS011;65250;47.602;19.002;2023-04-03T07:56:27;1.77;;;0.90;;
76417;SDS011;65250;47.602;19.002;2023-04-03T07:58:54;1.45;;;0.77;;
76417;SDS011;65250;47.602;19.002;2023-04-03T08:01:21;2.13;;;0.77;;
76417;SDS011;65250;47.602;19.002;2023-04-03T08:03:48;1.77;;;0.77;;
76417;SDS011;65250;47.602;19.002;2023-04-03T08:06:16;1.55;;;0.60;;
76417;SDS011;65250;47.602;19.002;2023-04-03T08:08:52;0.80;;;0.53;;
76417;SDS011;65250;47.602;19.002;2023-04-03T08:11:20;2.28;;;0.70;;
76417;SDS011;65250;47.602;19.002;2023-04-03T08:13:47;0.80;;;0.60;;
76417;SDS011;65250;47.602;19.002;2023-04-03T08:16:17;0.90;;;0.60;;
76417;SDS011;65250;47.602;19.002;2023-04-03T08:18:44;0.88;;;0.50;;
76417;SDS011;65250;47.602;19.002;2023-04-03T08:21:12;2.00;;;0.40;;
76417;SDS011;65250;47.602;19.002;2023-04-03T08:23:39;1.05;;;0.52;;
76417;SDS011;65250;47.602;19.002;2023-04-03T08:26:11;1.40;;;0.50;;
76417;SDS011;65250;47.602;19.002;2023-04-03T08:28:39;1.50;;;0.60;;
76417;SDS011;65250;47.602;19.002;2023-04-03T08:31:08;1.13;;;0.65;;
76417;SDS011;65250;47.602;19.002;2023-04-03T08:33:37;0.50;;;0.47;;
76417;SDS011;65250;47.602;19.002;2023-04-03T08:36:05;1.65;;;0.60;;
76417;SDS011;65250;47.602;19.002;2023-04-03T08:38:33;1.52;;;0.65;;
76417;SDS011;65250;47.602;19.002;2023-04-03T08:41:11;1.35;;;0.60;;
76417;SDS011;65250;47.602;19.002;2023-04-03T08:43:56;1.80;;;0.75;;
76417;SDS011;65250;47.602;19.002;2023-04-03T08:46:33;0.60;;;0.50;;
76417;SDS011;65250;47.602;19.002;2023-04-03T08:49:37;3.38;;;0.70;;
76417;SDS011;65250;47.602;19.002;2023-04-03T08:52:11;1.33;;;0.65;;
76417;SDS011;65250;47.602;19.002;2023-04-03T08:54:51;2.38;;;0.70;;
76417;SDS011;65250;47.602;19.002;2023-04-03T08:57:25;1.08;;;0.52;;
76417;SDS011;65250;47.602;19.002;2023-04-03T08:59:55;1.43;;;0.87;;
76417;SDS011;65250;47.602;19.002;2023-04-03T09:02:26;0.50;;;0.40;;
76417;SDS011;65250;47.602;19.002;2023-04-03T09:04:57;1.33;;;0.50;;
76417;SDS011;65250;47.602;19.002;2023-04-03T09:07:35;0.93;;;0.57;;
76417;SDS011;65250;47.602;19.002;2023-04-03T09:10:15;1.30;;;0.70;;
76417;SDS011;65250;47.602;19.002;2023-04-03T09:13:02;1.10;;;0.63;;
76417;SDS011;65250;47.602;19.002;2023-04-03T09:15:33;0.88;;;0.65;;
76417;SDS011;65250;47.602;19.002;2023-04-03T09:18:17;1.10;;;0.75;;
76417;SDS011;65250;47.602;19.002;2023-04-03T09:20:49;0.80;;;0.57;;
76417;SDS011;65250;47.602;19.002;2023-04-03T09:23:26;1.40;;;0.50;;
76417;SDS011;65250;47.602;19.002;2023-04-03T09:26:09;1.10;;;0.67;;
76417;SDS011;65250;47.602;19.002;2023-04-03T09:28:41;0.40;;;0.30;;
76417;SDS011;65250;47.602;19.002;2023-04-03T09:31:18;3.00;;;0.75;;
76417;SDS011;65250;47.602;19.002;2023-04-03T09:33:47;1.40;;;0.32;;
76417;SDS011;65250;47.602;19.002;2023-04-03T09:39:17;0.93;;;0.57;;
76417;SDS011;65250;47.602;19.002;2023-04-03T09:41:56;0.68;;;0.40;;
76417;SDS011;65250;47.602;19.002;2023-04-03T09:44:30;1.05;;;0.73;;
76417;SDS011;65250;47.602;19.002;2023-04-03T09:46:59;0.50;;;0.30;;
76417;SDS011;65250;47.602;19.002;2023-04-03T09:49:26;1.08;;;0.60;;
76417;SDS011;65250;47.602;19.002;2023-04-03T09:51:53;2.53;;;0.33;;
76417;SDS011;65250;47.602;19.002;2023-04-03T09:54:24;1.30;;;0.50;;
76417;SDS011;65250;47.602;19.002;2023-04-03T09:56:51;0.70;;;0.30;;
76417;SDS011;65250;47.602;19.002;2023-04-03T09:59:20;0.55;;;0.40;;
76417;SDS011;65250;47.602;19.002;2023-04-03T10:02:00;0.50;;;0.30;;
76417;SDS011;65250;47.602;19.002;2023-04-03T10:04:46;0.57;;;0.30;;
76417;SDS011;65250;47.602;19.002;2023-04-03T10:07:31;1.90;;;0.40;;
76417;SDS011;65250;47.602;19.002;2023-04-03T10:10:02;1.52;;;0.47;;
76417;SDS011;65250;47.602;19.002;2023-04-03T10:13:09;0.88;;;0.63;;
76417;SDS011;65250;47.602;19.002;2023-04-03T10:15:56;1.40;;;0.47;;
76417;SDS011;65250;47.602;19.002;2023-04-03T10:18:39;1.03;;;0.60;;
76417;SDS011;65250;47.602;19.002;2023-04-03T10:26:45;0.55;;;0.38;;
76417;SDS011;65250;47.602;19.002;2023-04-03T10:34:39;1.27;;;0.45;;
76417;SDS011;65250;47.602;19.002;2023-04-03T10:37:20;0.93;;;0.40;;
76417;SDS011;65250;47.602;19.002;2023-04-03T10:39:56;0.68;;;0.50;;
76417;SDS011;65250;47.602;19.002;2023-04-03T10:48:10;1.17;;;0.60;;
76417;SDS011;65250;47.602;19.002;2023-04-03T10:51:05;1.95;;;0.40;;
76417;SDS011;65250;47.602;19.002;2023-04-03T10:56:53;0.57;;;0.40;;
76417;SDS011;65250;47.602;19.002;2023-04-03T11:04:55;1.25;;;0.40;;
76417;SDS011;65250;47.602;19.002;2023-04-03T11:07:27;4.05;;;0.47;;
76417;SDS011;65250;47.602;19.002;2023-04-03T11:13:12;0.83;;;0.40;;
76417;SDS011;65250;47.602;19.002;2023-04-03T11:15:40;0.85;;;0.63;;
76417;SDS011;65250;47.602;19.002;2023-04-03T11:18:09;0.52;;;0.32;;
76417;SDS011;65250;47.602;19.002;2023-04-03T11:20:38;0.95;;;0.40;;
76417;SDS011;65250;47.602;19.002;2023-04-03T11:23:19;0.93;;;0.47;;
76417;SDS011;65250;47.602;19.002;2023-04-03T11:25:53;2.30;;;0.43;;
76417;SDS011;65250;47.602;19.002;2023-04-03T11:28:21;1.70;;;0.32;;
76417;SDS011;65250;47.602;19.002;2023-04-03T11:31:02;0.80;;;0.30;;
76417;SDS011;65250;47.602;19.002;2023-04-03T11:36:29;3.72;;;0.50;;
76417;SDS011;65250;47.602;19.002;2023-04-03T11:39:07;1.13;;;0.67;;
76417;SDS011;65250;47.602;19.002;2023-04-03T11:41:42;2.13;;;0.50;;
76417;SDS011;65250;47.602;19.002;2023-04-03T11:44:27;1.38;;;0.40;;
76417;SDS011;65250;47.602;19.002;2023-04-03T11:46:57;0.50;;;0.50;;
76417;SDS011;65250;47.602;19.002;2023-04-03T12:08:43;0.93;;;0.40;;
76417;SDS011;65250;47.602;19.002;2023-04-03T12:16:27;0.60;;;0.47;;
76417;SDS011;65250;47.602;19.002;2023-04-03T12:19:34;1.47;;;0.50;;
76417;SDS011;65250;47.602;19.002;2023-04-03T12:22:06;0.80;;;0.40;;
76417;SDS011;65250;47.602;19.002;2023-04-03T12:24:39;0.95;;;0.40;;
76417;SDS011;65250;47.602;19.002;2023-04-03T12:29:51;0.85;;;0.40;;
76417;SDS011;65250;47.602;19.002;2023-04-03T12:32:26;1.07;;;0.60;;
76417;SDS011;65250;47.602;19.002;2023-04-03T12:46:36;0.53;;;0.33;;
76417;SDS011;65250;47.602;19.002;2023-04-03T12:51:55;1.15;;;0.50;;
76417;SDS011;65250;47.602;19.002;2023-04-03T12:54:23;0.70;;;0.35;;
76417;SDS011;65250;47.602;19.002;2023-04-03T12:57:12;1.23;;;0.65;;
76417;SDS011;65250;47.602;19.002;2023-04-03T12:59:44;2.83;;;0.70;;
76417;SDS011;65250;47.602;19.002;2023-04-03T13:04:51;1.42;;;0.52;;
76417;SDS011;65250;47.602;19.002;2023-04-03T13:07:40;0.95;;;0.40;;
76417;SDS011;65250;47.602;19.002;2023-04-03T13:12:35;1.10;;;0.60;;
76417;SDS011;65250;47.602;19.002;2023-04-03T13:15:11;2.35;;;0.43;;
76417;SDS011;65250;47.602;19.002;2023-04-03T13:17:42;1.25;;;0.30;;
76417;SDS011;65250;47.602;19.002;2023-04-03T13:20:13;0.50;;;0.43;;
76417;SDS011;65250;47.602;19.002;2023-04-03T13:22:48;0.70;;;0.40;;
76417;SDS011;65250;47.602;19.002;2023-04-03T13:25:27;0.90;;;0.37;;
76417;SDS011;65250;47.602;19.002;2023-04-03T13:27:57;1.25;;;0.55;;
76417;SDS011;65250;47.602;19.002;2023-04-03T13:30:39;2.72;;;0.63;;
76417;SDS011;65250;47.602;19.002;2023-04-03T13:33:24;4.03;;;0.50;;
76417;SDS011;65250;47.602;19.002;2023-04-03T13:35:56;1.00;;;0.30;;
76417;SDS011;65250;47.602;19.002;2023-04-03T13:38:28;1.23;;;0.50;;
76417;SDS011;65250;47.602;19.002;2023-04-03T13:41:22;1.08;;;0.57;;
76417;SDS011;65250;47.602;19.002;2023-04-03T13:43:53;1.25;;;0.50;;
76417;SDS011;65250;47.602;19.002;2023-04-03T13:46:35;3.30;;;1.73;;
76417;SDS011;65250;47.602;19.002;2023-04-03T13:49:09;4.50;;;1.00;;
76417;SDS011;65250;47.602;19.002;2023-04-03T13:51:58;1.73;;;0.50;;
76417;SDS011;65250;47.602;19.002;2023-04-03T13:54:35;1.58;;;0.60;;
76417;SDS011;65250;47.602;19.002;2023-04-03T13:57:03;2.58;;;1.83;;
76417;SDS011;65250;47.602;19.002;2023-04-03T13:59:41;0.50;;;0.35;;
76417;SDS011;65250;47.602;19.002;2023-04-03T14:04:49;2.57;;;1.60;;
76417;SDS011;65250;47.602;19.002;2023-04-03T14:07:23;3.40;;;0.90;;
76417;SDS011;65250;47.602;19.002;2023-04-03T14:09:50;1.02;;;0.50;;
76417;SDS011;65250;47.602;19.002;2023-04-03T14:14:57;2.03;;;0.60;;
76417;SDS011;65250;47.602;19.002;2023-04-03T14:17:26;0.67;;;0.30;;
76417;SDS011;65250;47.602;19.002;2023-04-03T14:19:54;2.28;;;0.50;;
76417;SDS011;65250;47.602;19.002;2023-04-03T14:22:24;1.35;;;0.70;;
76417;SDS011;65250;47.602;19.002;2023-04-03T14:24:52;0.55;;;0.28;;
76417;SDS011;65250;47.602;19.002;2023-04-03T14:27:27;1.05;;;0.63;;
76417;SDS011;65250;47.602;19.002;2023-04-03T14:29:58;1.07;;;0.57;;
76417;SDS011;65250;47.602;19.002;2023-04-03T14:32:25;1.83;;;0.40;;
76417;SDS011;65250;47.602;19.002;2023-04-03T14:34:53;0.80;;;0.30;;
76417;SDS011;65250;47.602;19.002;2023-04-03T14:37:21;3.10;;;0.60;;
76417;SDS011;65250;47.602;19.002;2023-04-03T14:39:50;1.92;;;0.93;;
76417;SDS011;65250;47.602;19.002;2023-04-03T14:42:21;3.83;;;1.13;;
76417;SDS011;65250;47.602;19.002;2023-04-03T14:44:59;3.00;;;1.40;;
76417;SDS011;65250;47.602;19.002;2023-04-03T14:47:28;3.05;;;1.25;;
76417;SDS011;65250;47.602;19.002;2023-04-03T14:50:01;1.40;;;0.60;;
76417;SDS011;65250;47.602;19.002;2023-04-03T14:52:31;1.38;;;0.90;;
76417;SDS011;65250;47.602;19.002;2023-04-03T14:55:00;1.10;;;0.80;;
76417;SDS011;65250;47.602;19.002;2023-04-03T14:57:28;1.67;;;0.90;;
76417;SDS011;65250;47.602;19.002;2023-04-03T14:59:56;1.30;;;0.50;;
76417;SDS011;65250;47.602;19.002;2023-04-03T15:04:58;1.00;;;0.60;;
76417;SDS011;65250;47.602;19.002;2023-04-03T15:07:27;3.10;;;1.43;;
76417;SDS011;65250;47.602;19.002;2023-04-03T15:09:54;2.78;;;1.35;;
76417;SDS011;65250;47.602;19.002;2023-04-03T15:12:24;2.67;;;1.10;;
76417;SDS011;65250;47.602;19.002;2023-04-03T15:14:51;2.15;;;1.25;;
76417;SDS011;65250;47.602;19.002;2023-04-03T15:17:28;2.75;;;1.00;;
76417;SDS011;65250;47.602;19.002;2023-04-03T15:19:55;2.93;;;1.10;;
76417;SDS011;65250;47.602;19.002;2023-04-03T15:22:22;1.73;;;1.10;;
76417;SDS011;65250;47.602;19.002;2023-04-03T15:24:49;2.47;;;0.98;;
76417;SDS011;65250;47.602;19.002;2023-04-03T15:27:16;1.80;;;1.17;;
76417;SDS011;65250;47.602;19.002;2023-04-03T15:29:43;4.38;;;1.00;;
76417;SDS011;65250;47.602;19.002;2023-04-03T15:32:11;2.13;;;0.90;;
76417;SDS011;65250;47.602;19.002;2023-04-03T15:34:39;2.35;;;1.17;;
76417;SDS011;65250;47.602;19.002;2023-04-03T15:37:06;2.10;;;1.15;;
76417;SDS011;65250;47.602;19.002;2023-04-03T15:39:33;2.38;;;1.20;;
76417;SDS011;65250;47.602;19.002;2023-04-03T15:42:00;2.00;;;0.82;;
76417;SDS011;65250;47.602;19.002;2023-04-03T15:44:33;1.97;;;1.00;;
76417;SDS011;65250;47.602;19.002;2023-04-03T15:47:00;2.20;;;1.15;;
76417;SDS011;65250;47.602;19.002;2023-04-03T15:49:28;3.28;;;1.20;;
76417;SDS011;65250;47.602;19.002;2023-04-03T15:51:55;2.92;;;1.17;;
76417;SDS011;65250;47.602;19.002;2023-04-03T15:54:22;3.97;;;1.77;;
76417;SDS011;65250;47.602;19.002;2023-04-03T15:56:50;4.77;;;2.10;;
76417;SDS011;65250;47.602;19.002;2023-04-03T15:59:17;4.50;;;1.80;;
76417;SDS011;65250;47.602;19.002;2023-04-03T16:01:45;3.60;;;1.42;;
76417;SDS011;65250;47.602;19.002;2023-04-03T16:04:12;2.53;;;0.93;;
76417;SDS011;65250;47.602;19.002;2023-04-03T16:06:41;1.45;;;0.50;;
76417;SDS011;65250;47.602;19.002;2023-04-03T16:09:08;2.07;;;1.00;;
76417;SDS011;65250;47.602;19.002;2023-04-03T16:11:35;2.50;;;0.57;;
76417;SDS011;65250;47.602;19.002;2023-04-03T16:14:06;1.45;;;0.50;;
76417;SDS011;65250;47.602;19.002;2023-04-03T16:16:33;1.02;;;0.50;;
76417;SDS011;65250;47.602;19.002;2023-04-03T16:19:00;1.85;;;0.47;;
76417;SDS011;65250;47.602;19.002;2023-04-03T16:21:27;1.10;;;0.63;;
76417;SDS011;65250;47.602;19.002;2023-04-03T16:23:56;1.00;;;0.50;;
76417;SDS011;65250;47.602;19.002;2023-04-03T16:26:24;1.10;;;0.75;;
76417;SDS011;65250;47.602;19.002;2023-04-03T16:28:52;9.80;;;1.00;;
76417;SDS011;65250;47.602;19.002;2023-04-03T16:31:21;2.20;;;0.60;;